sensor_id;sensor_type;location;lat;lon;timestamp;pressure;altitude;pressure_sealevel;temperature
73673;BMP280;61972;19.480;-99.240;2023-08-17T00:00:53;77780.69;;;29.07
73673;BMP280;61972;19.480;-99.240;2023-08-17T00:03:20;77789.00;;;29.05
73673;BMP280;61972;19.480;-99.240;2023-08-17T00:05:46;77787.31;;;29.03
73673;BMP280;61972;19.480;-99.240;2023-08-17T00:08:12;77789.38;;;29.03
73673;BMP280;61972;19.480;-99.240;2023-08-17T00:10:38;77787.31;;;29.03
73673;BMP280;61972;19.480;-99.240;2023-08-17T00:13:04;77789.38;;;29.03
73673;BMP280;61972;19.480;-99.240;2023-08-17T00:15:30;77791.47;;;29.02
73673;BMP280;61972;19.480;-99.240;2023-08-17T00:17:57;77785.66;;;29.02
73673;BMP280;61972;19.480;-99.240;2023-08-17T00:20:24;77793.00;;;29.01
73673;BMP280;61972;19.480;-99.240;2023-08-17T00:22:50;77796.19;;;29.02
73673;BMP280;61972;19.480;-99.240;2023-08-17T00:25:16;77795.06;;;29.01
73673;BMP280;61972;19.480;-99.240;2023-08-17T00:27:42;77800.31;;;29.01
73673;BMP280;61972;19.480;-99.240;2023-08-17T00:30:08;77802.97;;;29.01
73673;BMP280;61972;19.480;-99.240;2023-08-17T00:32:34;77806.69;;;29.02
73673;BMP280;61972;19.480;-99.240;2023-08-17T00:35:00;77804.63;;;29.02
73673;BMP280;61972;19.480;-99.240;2023-08-17T00:37:26;77813.06;;;29.03
73673;BMP280;61972;19.480;-99.240;2023-08-17T00:39:52;77807.81;;;29.03
73673;BMP280;61972;19.480;-99.240;2023-08-17T00:42:18;77809.47;;;29.05
73673;BMP280;61972;19.480;-99.240;2023-08-17T00:44:44;77803.09;;;29.03
73673;BMP280;61972;19.480;-99.240;2023-08-17T00:47:11;77805.72;;;29.03
73673;BMP280;61972;19.480;-99.240;2023-08-17T00:49:37;77802.53;;;29.03
73673;BMP280;61972;19.480;-99.240;2023-08-17T00:52:03;77797.28;;;29.03
73673;BMP280;61972;19.480;-99.240;2023-08-17T00:54:31;77797.69;;;29.01
73673;BMP280;61972;19.480;-99.240;2023-08-17T00:56:57;77799.78;;;29.00
73673;BMP280;61972;19.480;-99.240;2023-08-17T00:59:25;77791.72;;;28.98
73673;BMP280;61972;19.480;-99.240;2023-08-17T01:01:51;77799.63;;;28.98
73673;BMP280;61972;19.480;-99.240;2023-08-17T01:04:17;77797.00;;;28.98
73673;BMP280;61972;19.480;-99.240;2023-08-17T01:06:43;77793.25;;;28.97
73673;BMP280;61972;19.480;-99.240;2023-08-17T01:09:09;77794.38;;;28.98
73673;BMP280;61972;19.480;-99.240;2023-08-17T01:11:47;77794.38;;;28.98
73673;BMP280;61972;19.480;-99.240;2023-08-17T01:14:43;77800.03;;;28.96
73673;BMP280;61972;19.480;-99.240;2023-08-17T01:17:17;77804.75;;;28.95
73673;BMP280;61972;19.480;-99.240;2023-08-17T01:19:44;77810.56;;;28.96
73673;BMP280;61972;19.480;-99.240;2023-08-17T01:22:13;77813.63;;;28.94
73673;BMP280;61972;19.480;-99.240;2023-08-17T01:24:41;77818.88;;;28.94
73673;BMP280;61972;19.480;-99.240;2023-08-17T01:27:07;77810.97;;;28.94
73673;BMP280;61972;19.480;-99.240;2023-08-17T01:29:33;77815.16;;;28.93
73673;BMP280;61972;19.480;-99.240;2023-08-17T01:34:58;77809.19;;;28.90
73673;BMP280;61972;19.480;-99.240;2023-08-17T01:37:28;77823.28;;;28.88
73673;BMP280;61972;19.480;-99.240;2023-08-17T01:39:56;77821.09;;;28.86
73673;BMP280;61972;19.480;-99.240;2023-08-17T01:42:24;77821.09;;;28.86
73673;BMP280;61972;19.480;-99.240;2023-08-17T01:44:51;77825.78;;;28.86
73673;BMP280;61972;19.480;-99.240;2023-08-17T01:47:21;77834.25;;;28.86
73673;BMP280;61972;19.480;-99.240;2023-08-17T01:49:48;77837.41;;;28.87
73673;BMP280;61972;19.480;-99.240;2023-08-17T01:52:15;77841.56;;;28.86
73673;BMP280;61972;19.480;-99.240;2023-08-17T01:54:41;77842.69;;;28.87
73673;BMP280;61972;19.480;-99.240;2023-08-17T01:57:07;77842.13;;;28.86
73673;BMP280;61972;19.480;-99.240;2023-08-17T01:59:33;77841.13;;;28.88
73673;BMP280;61972;19.480;-99.240;2023-08-17T02:02:03;77848.50;;;28.87
73673;BMP280;61972;19.480;-99.240;2023-08-17T02:04:29;77854.28;;;28.88
73673;BMP280;61972;19.480;-99.240;2023-08-17T02:06:55;77850.69;;;28.89
73673;BMP280;61972;19.480;-99.240;2023-08-17T02:09:21;77853.34;;;28.89
73673;BMP280;61972;19.480;-99.240;2023-08-17T02:11:47;77849.19;;;28.90
73673;BMP280;61972;19.480;-99.240;2023-08-17T02:14:13;77849.19;;;28.90
73673;BMP280;61972;19.480;-99.240;2023-08-17T02:16:39;77850.84;;;28.92
73673;BMP280;61972;19.480;-99.240;2023-08-17T02:19:05;77854.03;;;28.92
73673;BMP280;61972;19.480;-99.240;2023-08-17T02:21:31;77859.28;;;28.92
73673;BMP280;61972;19.480;-99.240;2023-08-17T02:23:57;77854.59;;;28.93
73673;BMP280;61972;19.480;-99.240;2023-08-17T02:26:23;77852.66;;;28.96
73673;BMP280;61972;19.480;-99.240;2023-08-17T02:28:49;77859.00;;;28.97
73673;BMP280;61972;19.480;-99.240;2023-08-17T02:31:15;77865.41;;;28.98
73673;BMP280;61972;19.480;-99.240;2023-08-17T02:33:41;77862.34;;;29.00
73673;BMP280;61972;19.480;-99.240;2023-08-17T02:36:07;77869.84;;;29.02
73673;BMP280;61972;19.480;-99.240;2023-08-17T02:38:34;77870.94;;;29.03
73673;BMP280;61972;19.480;-99.240;2023-08-17T02:41:00;77869.97;;;29.05
73673;BMP280;61972;19.480;-99.240;2023-08-17T02:43:26;77872.19;;;29.07
73673;BMP280;61972;19.480;-99.240;2023-08-17T02:45:52;77880.22;;;29.09
73673;BMP280;61972;19.480;-99.240;2023-08-17T02:48:18;77877.59;;;29.09
73673;BMP280;61972;19.480;-99.240;2023-08-17T02:50:44;77883.56;;;29.12
73673;BMP280;61972;19.480;-99.240;2023-08-17T02:53:10;77891.63;;;29.15
73673;BMP280;61972;19.480;-99.240;2023-08-17T02:55:36;77888.03;;;29.16
73673;BMP280;61972;19.480;-99.240;2023-08-17T02:58:03;77886.50;;;29.17
73673;BMP280;61972;19.480;-99.240;2023-08-17T03:00:29;77890.78;;;29.19
73673;BMP280;61972;19.480;-99.240;2023-08-17T03:02:55;77894.53;;;29.20
73673;BMP280;61972;19.480;-99.240;2023-08-17T03:05:21;77892.47;;;29.20
73673;BMP280;61972;19.480;-99.240;2023-08-17T03:07:47;77893.00;;;29.21
73673;BMP280;61972;19.480;-99.240;2023-08-17T03:10:13;77889.84;;;29.20
73673;BMP280;61972;19.480;-99.240;2023-08-17T03:12:40;77886.78;;;29.23
73673;BMP280;61972;19.480;-99.240;2023-08-17T03:15:06;77881.50;;;29.23
73673;BMP280;61972;19.480;-99.240;2023-08-17T03:17:32;77893.72;;;29.24
73673;BMP280;61972;19.480;-99.240;2023-08-17T03:19:58;77895.78;;;29.24
73673;BMP280;61972;19.480;-99.240;2023-08-17T03:22:25;77891.63;;;29.25
73673;BMP280;61972;19.480;-99.240;2023-08-17T03:24:54;77895.38;;;29.26
73673;BMP280;61972;19.480;-99.240;2023-08-17T03:27:20;77900.63;;;29.26
73673;BMP280;61972;19.480;-99.240;2023-08-17T03:29:46;77902.16;;;29.25
73673;BMP280;61972;19.480;-99.240;2023-08-17T03:32:13;77902.16;;;29.25
73673;BMP280;61972;19.480;-99.240;2023-08-17T03:34:39;77904.78;;;29.25
73673;BMP280;61972;19.480;-99.240;2023-08-17T03:37:05;77907.81;;;29.23
73673;BMP280;61972;19.480;-99.240;2023-08-17T03:39:31;77903.00;;;29.20
73673;BMP280;61972;19.480;-99.240;2023-08-17T03:41:57;77906.03;;;29.18
73673;BMP280;61972;19.480;-99.240;2023-08-17T03:44:23;77909.63;;;29.17
73673;BMP280;61972;19.480;-99.240;2023-08-17T03:46:49;77916.41;;;29.16
73673;BMP280;61972;19.480;-99.240;2023-08-17T03:49:15;77929.00;;;29.15
73673;BMP280;61972;19.480;-99.240;2023-08-17T03:51:42;77929.56;;;29.16
73673;BMP280;61972;19.480;-99.240;2023-08-17T03:54:08;77925.28;;;29.14
73673;BMP280;61972;19.480;-99.240;2023-08-17T03:56:34;77929.41;;;29.13
73673;BMP280;61972;19.480;-99.240;2023-08-17T03:59:00;77936.78;;;29.13
73673;BMP280;61972;19.480;-99.240;2023-08-17T04:01:26;77941.06;;;29.14
73673;BMP280;61972;19.480;-99.240;2023-08-17T04:03:53;77941.63;;;29.15
73673;BMP280;61972;19.480;-99.240;2023-08-17T04:06:19;77944.78;;;29.15
73673;BMP280;61972;19.480;-99.240;2023-08-17T04:08:48;77944.78;;;29.15
73673;BMP280;61972;19.480;-99.240;2023-08-17T04:11:14;77943.69;;;29.14
73673;BMP280;61972;19.480;-99.240;2023-08-17T04:13:40;77947.44;;;29.15
73673;BMP280;61972;19.480;-99.240;2023-08-17T04:16:10;77956.44;;;29.16
73673;BMP280;61972;19.480;-99.240;2023-08-17T04:18:36;77953.81;;;29.16
73673;BMP280;61972;19.480;-99.240;2023-08-17T04:21:02;77958.66;;;29.18
73673;BMP280;61972;19.480;-99.240;2023-08-17T04:23:28;77973.50;;;29.20
73673;BMP280;61972;19.480;-99.240;2023-08-17T04:25:54;77974.06;;;29.20
73673;BMP280;61972;19.480;-99.240;2023-08-17T04:28:21;77975.56;;;29.19
73673;BMP280;61972;19.480;-99.240;2023-08-17T04:30:47;77974.59;;;29.21
73673;BMP280;61972;19.480;-99.240;2023-08-17T04:33:13;77984.59;;;29.20
73673;BMP280;61972;19.480;-99.240;2023-08-17T04:35:40;77984.03;;;29.20
73673;BMP280;61972;19.480;-99.240;2023-08-17T04:38:06;77983.47;;;29.19
73673;BMP280;61972;19.480;-99.240;2023-08-17T04:40:33;77983.88;;;29.17
73673;BMP280;61972;19.480;-99.240;2023-08-17T04:42:59;77990.66;;;29.16
73673;BMP280;61972;19.480;-99.240;2023-08-17T04:45:25;77993.69;;;29.14
73673;BMP280;61972;19.480;-99.240;2023-08-17T04:47:51;77986.78;;;29.13
73673;BMP280;61972;19.480;-99.240;2023-08-17T04:50:18;77991.47;;;29.12
73673;BMP280;61972;19.480;-99.240;2023-08-17T04:52:44;77989.25;;;29.10
73673;BMP280;61972;19.480;-99.240;2023-08-17T04:55:12;77993.38;;;29.09
73673;BMP280;61972;19.480;-99.240;2023-08-17T04:57:38;77985.91;;;29.07
73673;BMP280;61972;19.480;-99.240;2023-08-17T05:00:05;77991.19;;;29.07
73673;BMP280;61972;19.480;-99.240;2023-08-17T05:02:35;77996.84;;;29.05
73673;BMP280;61972;19.480;-99.240;2023-08-17T05:05:05;77991.59;;;29.05
73673;BMP280;61972;19.480;-99.240;2023-08-17T05:07:33;77993.66;;;29.05
73673;BMP280;61972;19.480;-99.240;2023-08-17T05:10:00;77994.63;;;29.03
73673;BMP280;61972;19.480;-99.240;2023-08-17T05:12:26;77997.78;;;29.03
73673;BMP280;61972;19.480;-99.240;2023-08-17T05:14:52;77994.06;;;29.02
73673;BMP280;61972;19.480;-99.240;2023-08-17T05:17:18;77998.38;;;29.04
73673;BMP280;61972;19.480;-99.240;2023-08-17T05:19:44;77991.03;;;29.05
73673;BMP280;61972;19.480;-99.240;2023-08-17T05:22:11;77988.97;;;29.05
73673;BMP280;61972;19.480;-99.240;2023-08-17T05:24:38;77988.97;;;29.05
73673;BMP280;61972;19.480;-99.240;2023-08-17T05:27:07;77981.63;;;29.06
73673;BMP280;61972;19.480;-99.240;2023-08-17T05:29:34;77982.56;;;29.04
73673;BMP280;61972;19.480;-99.240;2023-08-17T05:32:00;77977.31;;;29.04
73673;BMP280;61972;19.480;-99.240;2023-08-17T05:34:26;77982.44;;;29.01
73673;BMP280;61972;19.480;-99.240;2023-08-17T05:36:52;77982.84;;;28.99
73673;BMP280;61972;19.480;-99.240;2023-08-17T05:39:19;77978.53;;;28.98
73673;BMP280;61972;19.480;-99.240;2023-08-17T05:41:45;77976.88;;;28.96
73673;BMP280;61972;19.480;-99.240;2023-08-17T05:44:11;77977.84;;;28.95
73673;BMP280;61972;19.480;-99.240;2023-08-17T05:46:39;77968.66;;;28.91
73673;BMP280;61972;19.480;-99.240;2023-08-17T05:49:06;77967.03;;;28.90
73673;BMP280;61972;19.480;-99.240;2023-08-17T05:51:32;77958.41;;;28.87
73673;BMP280;61972;19.480;-99.240;2023-08-17T05:53:58;77962.97;;;28.83
73673;BMP280;61972;19.480;-99.240;2023-08-17T05:56:27;77967.09;;;28.82
73673;BMP280;61972;19.480;-99.240;2023-08-17T05:58:53;77969.59;;;28.80
73673;BMP280;61972;19.480;-99.240;2023-08-17T06:01:19;77964.19;;;28.77
73673;BMP280;61972;19.480;-99.240;2023-08-17T06:03:46;77962.50;;;28.76
73673;BMP280;61972;19.480;-99.240;2023-08-17T06:06:12;77963.34;;;28.72
73673;BMP280;61972;19.480;-99.240;2023-08-17T06:08:38;77961.66;;;28.70
73673;BMP280;61972;19.480;-99.240;2023-08-17T06:11:04;77954.75;;;28.69
73673;BMP280;61972;19.480;-99.240;2023-08-17T06:13:31;77949.31;;;28.66
73673;BMP280;61972;19.480;-99.240;2023-08-17T06:15:57;77962.47;;;28.66
73673;BMP280;61972;19.480;-99.240;2023-08-17T06:18:29;77950.28;;;28.64
73673;BMP280;61972;19.480;-99.240;2023-08-17T06:20:55;77944.47;;;28.64
73673;BMP280;61972;19.480;-99.240;2023-08-17T06:23:21;77941.69;;;28.61
73673;BMP280;61972;19.480;-99.240;2023-08-17T06:25:47;77931.59;;;28.59
73673;BMP280;61972;19.480;-99.240;2023-08-17T06:28:14;77935.72;;;28.58
73673;BMP280;61972;19.480;-99.240;2023-08-17T06:30:40;77934.03;;;28.57
73673;BMP280;61972;19.480;-99.240;2023-08-17T06:33:06;77931.41;;;28.57
73673;BMP280;61972;19.480;-99.240;2023-08-17T06:35:32;77926.59;;;28.55
73673;BMP280;61972;19.480;-99.240;2023-08-17T06:37:58;77933.91;;;28.54
73673;BMP280;61972;19.480;-99.240;2023-08-17T06:40:25;77923.78;;;28.52
73673;BMP280;61972;19.480;-99.240;2023-08-17T06:42:51;77927.94;;;28.51
73673;BMP280;61972;19.480;-99.240;2023-08-17T06:45:19;77928.91;;;28.50
73673;BMP280;61972;19.480;-99.240;2023-08-17T06:47:46;77926.28;;;28.50
73673;BMP280;61972;19.480;-99.240;2023-08-17T06:50:14;77923.66;;;28.50
73673;BMP280;61972;19.480;-99.240;2023-08-17T06:52:40;77926.28;;;28.50
73673;BMP280;61972;19.480;-99.240;2023-08-17T06:55:07;77923.09;;;28.49
73673;BMP280;61972;19.480;-99.240;2023-08-17T06:57:33;77921.41;;;28.48
73673;BMP280;61972;19.480;-99.240;2023-08-17T06:59:59;77926.66;;;28.48
73673;BMP280;61972;19.480;-99.240;2023-08-17T07:02:25;77930.84;;;28.47
73673;BMP280;61972;19.480;-99.240;2023-08-17T07:04:51;77927.09;;;28.45
73673;BMP280;61972;19.480;-99.240;2023-08-17T07:07:18;77928.59;;;28.44
73673;BMP280;61972;19.480;-99.240;2023-08-17T07:09:44;77933.84;;;28.44
73673;BMP280;61972;19.480;-99.240;2023-08-17T07:12:10;77933.84;;;28.44
73673;BMP280;61972;19.480;-99.240;2023-08-17T07:14:36;77931.94;;;28.48
73673;BMP280;61972;19.480;-99.240;2023-08-17T07:17:02;77928.34;;;28.49
73673;BMP280;61972;19.480;-99.240;2023-08-17T07:19:29;77928.50;;;28.52
73673;BMP280;61972;19.480;-99.240;2023-08-17T07:21:55;77924.38;;;28.53
73673;BMP280;61972;19.480;-99.240;2023-08-17T07:24:21;77927.69;;;28.56
73673;BMP280;61972;19.480;-99.240;2023-08-17T07:26:47;77924.66;;;28.58
73673;BMP280;61972;19.480;-99.240;2023-08-17T07:29:13;77925.94;;;28.61
73673;BMP280;61972;19.480;-99.240;2023-08-17T07:31:39;77922.31;;;28.63
73673;BMP280;61972;19.480;-99.240;2023-08-17T07:34:06;77920.41;;;28.66
73673;BMP280;61972;19.480;-99.240;2023-08-17T07:36:33;77918.47;;;28.69
73673;BMP280;61972;19.480;-99.240;2023-08-17T07:39:00;77912.25;;;28.71
73673;BMP280;61972;19.480;-99.240;2023-08-17T07:41:26;77901.88;;;28.73
73673;BMP280;61972;19.480;-99.240;2023-08-17T07:43:52;77900.50;;;28.77
73673;BMP280;61972;19.480;-99.240;2023-08-17T07:46:18;77885.84;;;28.78
73673;BMP280;61972;19.480;-99.240;2023-08-17T07:48:45;77892.78;;;28.79
73673;BMP280;61972;19.480;-99.240;2023-08-17T07:51:11;77891.94;;;28.83
73673;BMP280;61972;19.480;-99.240;2023-08-17T07:53:37;77890.03;;;28.87
73673;BMP280;61972;19.480;-99.240;2023-08-17T07:56:03;77891.13;;;28.88
73673;BMP280;61972;19.480;-99.240;2023-08-17T07:58:30;77889.19;;;28.91
73673;BMP280;61972;19.480;-99.240;2023-08-17T08:00:56;77883.94;;;28.91
73673;BMP280;61972;19.480;-99.240;2023-08-17T08:03:22;77890.31;;;28.92
73673;BMP280;61972;19.480;-99.240;2023-08-17T08:05:48;77889.75;;;28.91
73673;BMP280;61972;19.480;-99.240;2023-08-17T08:08:15;77882.84;;;28.90
73673;BMP280;61972;19.480;-99.240;2023-08-17T08:10:43;77881.44;;;28.83
73673;BMP280;61972;19.480;-99.240;2023-08-17T08:13:09;77887.34;;;28.77
73673;BMP280;61972;19.480;-99.240;2023-08-17T08:15:35;77880.56;;;28.68
73673;BMP280;61972;19.480;-99.240;2023-08-17T08:18:02;77882.16;;;28.60
73673;BMP280;61972;19.480;-99.240;2023-08-17T08:20:28;77882.69;;;28.51
73673;BMP280;61972;19.480;-99.240;2023-08-17T08:22:54;77869.91;;;28.39
73673;BMP280;61972;19.480;-99.240;2023-08-17T08:25:20;77872.50;;;28.29
73673;BMP280;61972;19.480;-99.240;2023-08-17T08:27:47;77870.38;;;28.20
73673;BMP280;61972;19.480;-99.240;2023-08-17T08:30:13;77881.41;;;28.11
73673;BMP280;61972;19.480;-99.240;2023-08-17T08:32:39;77863.94;;;27.99
73673;BMP280;61972;19.480;-99.240;2023-08-17T08:35:05;77869.66;;;27.90
73673;BMP280;61972;19.480;-99.240;2023-08-17T08:37:32;77863.38;;;27.82
73673;BMP280;61972;19.480;-99.240;2023-08-17T08:39:58;77856.03;;;27.73
73673;BMP280;61972;19.480;-99.240;2023-08-17T08:42:25;77860.25;;;27.64
73673;BMP280;61972;19.480;-99.240;2023-08-17T08:44:51;77853.97;;;27.56
73673;BMP280;61972;19.480;-99.240;2023-08-17T08:47:18;77850.34;;;27.48
73673;BMP280;61972;19.480;-99.240;2023-08-17T08:50:01;77847.78;;;27.41
73673;BMP280;61972;19.480;-99.240;2023-08-17T08:52:35;77849.38;;;27.32
73673;BMP280;61972;19.480;-99.240;2023-08-17T08:55:15;77850.97;;;27.24
73673;BMP280;61972;19.480;-99.240;2023-08-17T08:57:41;77843.19;;;27.17
73673;BMP280;61972;19.480;-99.240;2023-08-17T09:00:09;77852.25;;;27.11
73673;BMP280;61972;19.480;-99.240;2023-08-17T09:02:35;77843.34;;;27.03
73673;BMP280;61972;19.480;-99.240;2023-08-17T09:05:02;77848.81;;;26.98
73673;BMP280;61972;19.480;-99.240;2023-08-17T09:07:29;77850.00;;;26.92
73673;BMP280;61972;19.480;-99.240;2023-08-17T09:09:56;77846.50;;;26.86
73673;BMP280;61972;19.480;-99.240;2023-08-17T09:12:22;77847.31;;;26.82
73673;BMP280;61972;19.480;-99.240;2023-08-17T09:14:48;77851.13;;;26.76
73673;BMP280;61972;19.480;-99.240;2023-08-17T09:17:23;77856.03;;;26.71
73673;BMP280;61972;19.480;-99.240;2023-08-17T09:19:49;77853.63;;;26.66
73673;BMP280;61972;19.480;-99.240;2023-08-17T09:22:25;77862.84;;;26.63
73673;BMP280;61972;19.480;-99.240;2023-08-17T09:24:51;77862.53;;;26.57
73673;BMP280;61972;19.480;-99.240;2023-08-17T09:27:17;77858.59;;;26.54
73673;BMP280;61972;19.480;-99.240;2023-08-17T09:29:44;77857.31;;;26.50
73673;BMP280;61972;19.480;-99.240;2023-08-17T09:32:14;77853.97;;;26.47
73673;BMP280;61972;19.480;-99.240;2023-08-17T09:34:44;77856.84;;;26.43
73673;BMP280;61972;19.480;-99.240;2023-08-17T09:37:12;77849.34;;;26.40
73673;BMP280;61972;19.480;-99.240;2023-08-17T09:39:39;77851.28;;;26.37
73673;BMP280;61972;19.480;-99.240;2023-08-17T09:42:05;77856.34;;;26.35
73673;BMP280;61972;19.480;-99.240;2023-08-17T09:44:33;77861.41;;;26.32
73673;BMP280;61972;19.480;-99.240;2023-08-17T09:47:01;77852.28;;;26.29
73673;BMP280;61972;19.480;-99.240;2023-08-17T09:49:30;77852.66;;;26.27
73673;BMP280;61972;19.480;-99.240;2023-08-17T09:51:59;77851.94;;;26.24
73673;BMP280;61972;19.480;-99.240;2023-08-17T09:54:27;77846.53;;;26.21
73673;BMP280;61972;19.480;-99.240;2023-08-17T09:56:53;77846.94;;;26.19
73673;BMP280;61972;19.480;-99.240;2023-08-17T09:59:20;77844.69;;;26.17
73673;BMP280;61972;19.480;-99.240;2023-08-17T10:01:48;77849.78;;;26.14
73673;BMP280;61972;19.480;-99.240;2023-08-17T10:04:21;77837.06;;;26.12
73673;BMP280;61972;19.480;-99.240;2023-08-17T10:06:59;77839.91;;;26.08
73673;BMP280;61972;19.480;-99.240;2023-08-17T10:09:31;77848.69;;;26.06
73673;BMP280;61972;19.480;-99.240;2023-08-17T10:11:58;77846.50;;;26.04
73673;BMP280;61972;19.480;-99.240;2023-08-17T10:14:35;77849.50;;;26.02
73673;BMP280;61972;19.480;-99.240;2023-08-17T10:17:07;77847.81;;;26.00
73673;BMP280;61972;19.480;-99.240;2023-08-17T10:19:56;77852.88;;;25.98
73673;BMP280;61972;19.480;-99.240;2023-08-17T10:24:49;77846.91;;;25.95
73673;BMP280;61972;19.480;-99.240;2023-08-17T10:27:16;77849.91;;;25.93
73673;BMP280;61972;19.480;-99.240;2023-08-17T10:29:43;77847.72;;;25.91
73673;BMP280;61972;19.480;-99.240;2023-08-17T10:32:11;77840.78;;;25.89
73673;BMP280;61972;19.480;-99.240;2023-08-17T10:34:38;77850.72;;;25.89
73673;BMP280;61972;19.480;-99.240;2023-08-17T10:37:05;77847.91;;;25.86
73673;BMP280;61972;19.480;-99.240;2023-08-17T10:39:31;77852.06;;;25.85
73673;BMP280;61972;19.480;-99.240;2023-08-17T10:42:00;77861.94;;;25.84
73673;BMP280;61972;19.480;-99.240;2023-08-17T10:44:47;77847.59;;;25.81
73673;BMP280;61972;19.480;-99.240;2023-08-17T10:47:23;77851.13;;;25.79
73673;BMP280;61972;19.480;-99.240;2023-08-17T10:49:57;77843.09;;;25.77
73673;BMP280;61972;19.480;-99.240;2023-08-17T10:52:30;77850.41;;;25.76
73673;BMP280;61972;19.480;-99.240;2023-08-17T10:55:00;77846.13;;;25.75
73673;BMP280;61972;19.480;-99.240;2023-08-17T10:57:37;77845.94;;;25.72
73673;BMP280;61972;19.480;-99.240;2023-08-17T11:00:20;77845.94;;;25.72
73673;BMP280;61972;19.480;-99.240;2023-08-17T11:02:55;77844.28;;;25.71
73673;BMP280;61972;19.480;-99.240;2023-08-17T11:05:44;77850.44;;;25.69
73673;BMP280;61972;19.480;-99.240;2023-08-17T11:11:05;77843.56;;;25.68
73673;BMP280;61972;19.480;-99.240;2023-08-17T11:13:32;77850.84;;;25.67
73673;BMP280;61972;19.480;-99.240;2023-08-17T11:16:00;77848.22;;;25.67
73673;BMP280;61972;19.480;-99.240;2023-08-17T11:18:26;77844.88;;;25.64
73673;BMP280;61972;19.480;-99.240;2023-08-17T11:20:53;77844.88;;;25.64
73673;BMP280;61972;19.480;-99.240;2023-08-17T11:23:20;77838.53;;;25.63
73673;BMP280;61972;19.480;-99.240;2023-08-17T11:25:46;77842.63;;;25.62
73673;BMP280;61972;19.480;-99.240;2023-08-17T11:28:13;77837.41;;;25.62
73673;BMP280;61972;19.480;-99.240;2023-08-17T11:30:40;77836.84;;;25.61
73673;BMP280;61972;19.480;-99.240;2023-08-17T11:33:07;77841.53;;;25.61
73673;BMP280;61972;19.480;-99.240;2023-08-17T11:35:34;77839.28;;;25.59
73673;BMP280;61972;19.480;-99.240;2023-08-17T11:38:00;77846.59;;;25.58
73673;BMP280;61972;19.480;-99.240;2023-08-17T11:40:27;77843.97;;;25.58
73673;BMP280;61972;19.480;-99.240;2023-08-17T11:42:53;77841.75;;;25.56
73673;BMP280;61972;19.480;-99.240;2023-08-17T11:45:19;77851.09;;;25.55
73673;BMP280;61972;19.480;-99.240;2023-08-17T11:47:47;77855.22;;;25.54
73673;BMP280;61972;19.480;-99.240;2023-08-17T11:50:14;77864.56;;;25.53
73673;BMP280;61972;19.480;-99.240;2023-08-17T11:52:40;77858.78;;;25.53
73673;BMP280;61972;19.480;-99.240;2023-08-17T11:55:08;77852.41;;;25.52
73673;BMP280;61972;19.480;-99.240;2023-08-17T11:57:36;77867.03;;;25.51
73673;BMP280;61972;19.480;-99.240;2023-08-17T12:00:03;77860.66;;;25.50
73673;BMP280;61972;19.480;-99.240;2023-08-17T12:02:31;77862.16;;;25.49
73673;BMP280;61972;19.480;-99.240;2023-08-17T12:05:03;77863.66;;;25.47
73673;BMP280;61972;19.480;-99.240;2023-08-17T12:07:33;77858.97;;;25.48
73673;BMP280;61972;19.480;-99.240;2023-08-17T12:09:59;77861.41;;;25.45
73673;BMP280;61972;19.480;-99.240;2023-08-17T12:12:25;77862.00;;;25.46
73673;BMP280;61972;19.480;-99.240;2023-08-17T12:14:54;77874.88;;;25.43
73673;BMP280;61972;19.480;-99.240;2023-08-17T12:17:21;77874.88;;;25.43
73673;BMP280;61972;19.480;-99.240;2023-08-17T12:19:53;77879.00;;;25.42
73673;BMP280;61972;19.480;-99.240;2023-08-17T12:22:19;77882.56;;;25.41
73673;BMP280;61972;19.480;-99.240;2023-08-17T12:24:48;77881.44;;;25.40
73673;BMP280;61972;19.480;-99.240;2023-08-17T12:27:14;77886.13;;;25.39
73673;BMP280;61972;19.480;-99.240;2023-08-17T12:29:50;77890.25;;;25.38
73673;BMP280;61972;19.480;-99.240;2023-08-17T12:32:18;77893.78;;;25.37
73673;BMP280;61972;19.480;-99.240;2023-08-17T12:34:45;77892.13;;;25.35
73673;BMP280;61972;19.480;-99.240;2023-08-17T12:37:12;77894.72;;;25.35
73673;BMP280;61972;19.480;-99.240;2023-08-17T12:39:38;77899.38;;;25.35
73673;BMP280;61972;19.480;-99.240;2023-08-17T12:42:05;77890.41;;;25.34
73673;BMP280;61972;19.480;-99.240;2023-08-17T12:44:31;77900.88;;;25.34
73673;BMP280;61972;19.480;-99.240;2023-08-17T12:46:58;77905.03;;;25.33
73673;BMP280;61972;19.480;-99.240;2023-08-17T12:49:24;77903.34;;;25.31
73673;BMP280;61972;19.480;-99.240;2023-08-17T12:51:50;77905.94;;;25.31
73673;BMP280;61972;19.480;-99.240;2023-08-17T12:54:17;77902.78;;;25.31
73673;BMP280;61972;19.480;-99.240;2023-08-17T12:56:44;77908.56;;;25.31
73673;BMP280;61972;19.480;-99.240;2023-08-17T12:59:10;77913.25;;;25.31
73673;BMP280;61972;19.480;-99.240;2023-08-17T13:01:37;77914.19;;;25.29
73673;BMP280;61972;19.480;-99.240;2023-08-17T13:04:03;77922.03;;;25.29
73673;BMP280;61972;19.480;-99.240;2023-08-17T13:06:29;77922.03;;;25.29
73673;BMP280;61972;19.480;-99.240;2023-08-17T13:08:56;77927.25;;;25.29
73673;BMP280;61972;19.480;-99.240;2023-08-17T13:11:22;77923.53;;;25.28
73673;BMP280;61972;19.480;-99.240;2023-08-17T13:13:48;77924.44;;;25.26
73673;BMP280;61972;19.480;-99.240;2023-08-17T13:16:14;77923.94;;;25.26
73673;BMP280;61972;19.480;-99.240;2023-08-17T13:18:40;77928.59;;;25.25
73673;BMP280;61972;19.480;-99.240;2023-08-17T13:21:06;77933.25;;;25.25
73673;BMP280;61972;19.480;-99.240;2023-08-17T13:23:32;77937.38;;;25.24
73673;BMP280;61972;19.480;-99.240;2023-08-17T13:25:58;77936.25;;;25.23
73673;BMP280;61972;19.480;-99.240;2023-08-17T13:28:24;77940.91;;;25.22
73673;BMP280;61972;19.480;-99.240;2023-08-17T13:30:50;77944.47;;;25.21
73673;BMP280;61972;19.480;-99.240;2023-08-17T13:33:16;77941.84;;;25.21
73673;BMP280;61972;19.480;-99.240;2023-08-17T13:35:43;77941.28;;;25.20
73673;BMP280;61972;19.480;-99.240;2023-08-17T13:38:09;77937.56;;;25.19
73673;BMP280;61972;19.480;-99.240;2023-08-17T13:40:36;77950.63;;;25.19
73673;BMP280;61972;19.480;-99.240;2023-08-17T13:43:04;77954.75;;;25.18
73673;BMP280;61972;19.480;-99.240;2023-08-17T13:45:38;77949.53;;;25.18
73673;BMP280;61972;19.480;-99.240;2023-08-17T13:48:06;77951.03;;;25.17
73673;BMP280;61972;19.480;-99.240;2023-08-17T13:50:33;77957.75;;;25.16
73673;BMP280;61972;19.480;-99.240;2023-08-17T13:52:59;77957.19;;;25.16